createdAt,value
2022-09-05T00:02:05.939Z,101045.91
2022-09-05T00:05:10.336Z,101048.75
2022-09-05T00:07:59.310Z,101052.72
2022-09-05T00:10:36.138Z,101045.66
2022-09-05T00:13:09.627Z,101050.31
2022-09-05T00:16:06.900Z,101049.59
2022-09-05T00:24:18.845Z,101044.72
2022-09-05T00:24:29.346Z,101053.28
2022-09-05T00:25:31.745Z,101052.16
2022-09-05T00:28:26.069Z,101047.66
2022-09-05T00:31:54.343Z,101049.63
2022-09-05T00:34:51.988Z,101046.00
2022-09-05T00:37:32.771Z,101045.44
2022-09-05T00:40:29.552Z,101044.19
2022-09-05T00:43:11.457Z,101055.13
2022-09-05T00:45:51.543Z,101047.69
2022-09-05T00:48:38.325Z,101048.53
2022-09-05T00:51:34.851Z,101045.88
2022-09-05T00:54:18.695Z,101047.13
2022-09-05T00:57:33.713Z,101046.00
2022-09-05T01:00:17.559Z,101042.22
2022-09-05T01:03:11.583Z,101040.50
2022-09-05T01:06:02.257Z,101043.75
2022-09-05T01:08:53.576Z,101048.19
2022-09-05T01:11:32.836Z,101045.41
2022-09-05T01:14:34.418Z,101045.59
2022-09-05T01:17:28.743Z,101044.84
2022-09-05T01:20:34.430Z,101038.81
2022-09-05T01:23:30.128Z,101050.56
2022-09-05T01:26:10.253Z,101046.19
2022-09-05T01:29:18.449Z,101045.47
2022-09-05T01:32:22.653Z,101049.69
2022-09-05T01:34:58.194Z,101054.28
2022-09-05T01:37:40.222Z,101049.78
2022-09-05T01:40:15.878Z,101048.91
2022-09-05T01:43:04.786Z,101049.63
2022-09-05T01:45:45.986Z,101045.66
2022-09-05T01:48:47.802Z,101051.69
2022-09-05T01:51:31.646Z,101050.66
2022-09-05T01:54:41.877Z,101056.13
2022-09-05T01:57:29.860Z,101043.16
2022-09-05T02:00:06.905Z,101048.31
2022-09-05T02:02:51.701Z,101047.47
2022-09-05T02:05:48.533Z,101049.28
2022-09-05T02:08:16.085Z,101054.63
2022-09-05T02:11:00.783Z,101053.56
2022-09-05T02:13:36.582Z,101059.03
2022-09-05T02:16:35.045Z,101051.03
2022-09-05T02:19:10.379Z,101051.56
2022-09-05T02:22:11.912Z,101049.69
2022-09-05T02:24:43.183Z,101056.63
2022-09-05T02:28:05.139Z,101051.44
2022-09-05T02:30:13.480Z,101058.84
2022-09-05T02:32:44.450Z,101052.94
2022-09-05T02:35:13.735Z,101056.97
2022-09-05T02:43:35.338Z,101054.28
2022-09-05T02:45:07.734Z,101057.06
2022-09-05T02:45:11.157Z,101054.19
2022-09-05T02:47:22.489Z,101045.47
2022-09-05T02:53:15.969Z,101057.91
2022-09-05T02:57:41.941Z,101059.56
2022-09-05T02:57:42.126Z,101051.31
2022-09-05T02:59:09.713Z,101061.94
2022-09-05T03:01:55.283Z,101063.66
2022-09-05T03:04:35.667Z,101062.47
2022-09-05T03:07:24.032Z,101059.03
2022-09-05T03:10:09.599Z,101066.19
2022-09-05T03:13:14.956Z,101060.91
2022-09-05T03:16:22.953Z,101066.69
2022-09-05T03:19:13.731Z,101065.47
2022-09-05T03:22:11.508Z,101061.00
2022-09-05T03:24:59.496Z,101064.16
2022-09-05T03:27:32.045Z,101073.00
2022-09-05T03:30:15.875Z,101067.09
2022-09-05T03:33:29.899Z,101068.66
2022-09-05T03:36:13.708Z,101069.16
2022-09-05T03:38:49.064Z,101072.31
2022-09-05T03:41:40.091Z,101068.91
2022-09-05T03:44:28.768Z,101076.53
2022-09-05T03:47:17.871Z,101082.69
2022-09-05T03:54:33.744Z,101084.13
2022-09-05T03:57:19.161Z,101083.91
2022-09-05T03:57:24.720Z,101088.25
2022-09-05T03:59:35.995Z,101088.75
2022-09-05T04:08:09.760Z,101090.41
2022-09-05T04:08:16.470Z,101084.38
2022-09-05T04:08:25.373Z,101089.09
2022-09-05T04:11:06.927Z,101090.91
2022-09-05T04:13:41.015Z,101087.75
2022-09-05T04:16:24.325Z,101091.03
2022-09-05T04:18:54.984Z,101100.06
2022-09-05T04:21:35.743Z,101095.25
2022-09-05T04:24:17.329Z,101095.25
2022-09-05T04:27:16.920Z,101100.22
2022-09-05T04:29:59.980Z,101102.88
2022-09-05T04:32:35.531Z,101106.59
2022-09-05T04:35:20.117Z,101112.03
2022-09-05T04:37:48.700Z,101114.81
2022-09-05T04:40:39.272Z,101116.94
2022-09-05T04:43:10.564Z,101117.56
2022-09-05T04:45:42.853Z,101115.63
2022-09-05T04:48:12.748Z,101113.44
2022-09-05T04:51:00.872Z,101125.53
2022-09-05T04:53:49.253Z,101130.97
2022-09-05T04:56:20.511Z,101128.31
2022-09-05T05:00:54.328Z,101136.75
2022-09-05T05:04:41.075Z,101136.00
2022-09-05T05:06:17.755Z,101136.72
2022-09-05T05:07:47.896Z,101138.06
2022-09-05T05:13:59.645Z,101144.22
2022-09-05T05:17:55.152Z,101135.59
2022-09-05T05:18:09.261Z,101139.34
2022-09-05T05:19:21.890Z,101135.44
2022-09-05T05:21:52.733Z,101137.84
2022-09-05T05:24:23.954Z,101136.75
2022-09-05T05:27:09.096Z,101140.44
2022-09-05T05:29:44.406Z,101143.31
2022-09-05T05:32:33.264Z,101134.16
2022-09-05T05:35:12.121Z,101137.00
2022-09-05T05:37:49.140Z,101144.44
2022-09-05T05:40:15.601Z,101143.63
2022-09-05T05:42:42.974Z,101148.75
2022-09-05T05:45:19.577Z,101152.75
2022-09-05T05:47:49.598Z,101156.44
2022-09-05T05:50:37.936Z,101156.94
2022-09-05T05:53:36.355Z,101161.47
2022-09-05T05:56:36.079Z,101166.44
2022-09-05T05:59:56.334Z,101169.56
2022-09-05T06:03:09.924Z,101173.13
2022-09-05T06:05:59.692Z,101175.81
2022-09-05T06:12:46.349Z,101172.16
2022-09-05T06:15:00.482Z,101180.19
2022-09-05T06:15:11.563Z,101180.47
2022-09-05T06:18:07.302Z,101186.78
2022-09-05T06:22:10.359Z,101183.66
2022-09-05T06:24:07.588Z,101186.75
2022-09-05T06:26:44.840Z,101192.63
2022-09-05T06:29:35.250Z,101189.91
2022-09-05T06:32:55.311Z,101185.22
2022-09-05T06:35:59.119Z,101190.66
2022-09-05T06:38:52.801Z,101192.13
2022-09-05T06:41:26.194Z,101195.16
2022-09-05T06:44:19.417Z,101202.91
2022-09-05T06:46:54.436Z,101206.47
2022-09-05T06:49:55.710Z,101214.09
2022-09-05T06:53:08.195Z,101211.25
2022-09-05T06:55:59.857Z,101221.72
2022-09-05T06:59:06.628Z,101240.34
2022-09-05T07:02:00.210Z,101256.78
2022-09-05T07:05:24.708Z,101265.91
2022-09-05T07:07:27.778Z,101278.19
2022-09-05T07:10:00.543Z,101286.78
2022-09-05T07:12:31.141Z,101288.53
2022-09-05T07:15:28.768Z,101291.88
2022-09-05T07:18:10.887Z,101301.03
2022-09-05T07:21:16.443Z,101313.88
2022-09-05T07:24:08.546Z,101309.56
2022-09-05T07:26:54.467Z,101309.63
2022-09-05T07:29:27.716Z,101315.31
2022-09-05T07:31:55.525Z,101325.44
2022-09-05T07:34:31.931Z,101317.81
2022-09-05T07:37:15.182Z,101317.63
2022-09-05T07:40:11.349Z,101320.97
2022-09-05T07:43:08.982Z,101325.38
2022-09-05T07:45:39.150Z,101326.72
2022-09-05T07:48:34.524Z,101316.13
2022-09-05T07:56:06.809Z,101319.13
2022-09-05T07:56:50.755Z,101316.53
2022-09-05T07:57:06.511Z,101309.78
2022-09-05T07:59:34.310Z,101300.78
2022-09-05T08:02:01.952Z,101301.41
2022-09-05T08:04:33.281Z,101296.13
2022-09-05T08:07:47.700Z,101298.50
2022-09-05T08:10:10.792Z,101298.22
2022-09-05T08:13:23.499Z,101284.47
2022-09-05T08:16:15.056Z,101273.50
2022-09-05T08:18:36.904Z,101275.59
2022-09-05T08:21:27.267Z,101259.94
2022-09-05T08:24:13.148Z,101255.03
2022-09-05T08:26:50.914Z,101240.91
2022-09-05T08:29:31.545Z,101242.88
2022-09-05T08:32:14.115Z,101249.59
2022-09-05T08:34:54.691Z,101241.13
2022-09-05T08:37:23.203Z,101230.03
2022-09-05T08:40:15.249Z,101238.13
2022-09-05T08:45:50.633Z,101233.38
2022-09-05T08:46:40.131Z,101230.16
2022-09-05T08:49:12.077Z,101223.25
2022-09-05T08:51:55.811Z,101233.72
2022-09-05T08:54:43.757Z,101232.44
2022-09-05T08:57:21.305Z,101223.19
2022-09-05T09:00:18.472Z,101225.28
2022-09-05T09:03:06.616Z,101226.25
2022-09-05T09:06:12.390Z,101226.88
2022-09-05T09:08:58.190Z,101223.50
2022-09-05T09:11:36.935Z,101224.09
2022-09-05T09:14:40.963Z,101211.19
2022-09-05T09:17:37.504Z,101210.69
2022-09-05T09:20:13.715Z,101210.00
2022-09-05T09:23:05.530Z,101203.47
2022-09-05T09:25:43.869Z,101201.22
2022-09-05T09:28:47.394Z,101201.97
2022-09-05T09:31:43.098Z,101191.25
2022-09-05T09:34:33.046Z,101197.19
2022-09-05T09:37:48.163Z,101183.31
2022-09-05T09:40:44.901Z,101186.91
2022-09-05T09:43:30.047Z,101179.81
2022-09-05T09:46:15.596Z,101186.06
2022-09-05T09:48:58.455Z,101178.31
2022-09-05T09:51:31.336Z,101170.03
2022-09-05T09:54:18.956Z,101173.31
2022-09-05T09:57:35.035Z,101169.97
2022-09-05T10:00:14.781Z,101178.38
2022-09-05T10:05:56.010Z,101170.81
2022-09-05T10:10:43.853Z,101169.03
2022-09-05T10:10:53.559Z,101170.13
2022-09-05T10:13:08.122Z,101174.47
2022-09-05T10:15:52.680Z,101159.94
2022-09-05T10:18:29.050Z,101164.25
2022-09-05T10:21:16.056Z,101164.72
2022-09-05T10:23:57.085Z,101164.19
2022-09-05T10:26:32.729Z,101151.69
2022-09-05T10:29:30.150Z,101152.91
2022-09-05T10:35:06.908Z,101157.56
2022-09-05T10:35:21.232Z,101152.78
2022-09-05T10:37:58.366Z,101152.25
2022-09-05T10:40:26.031Z,101151.06
2022-09-05T10:43:00.081Z,101151.38
2022-09-05T10:45:54.537Z,101146.31
2022-09-05T10:48:52.878Z,101143.09
2022-09-05T10:51:29.814Z,101146.03
2022-09-05T10:54:10.719Z,101144.34
2022-09-05T10:56:47.832Z,101140.44
2022-09-05T11:02:24.767Z,101149.34
2022-09-05T11:02:34.631Z,101144.69
2022-09-05T11:05:06.711Z,101142.50
2022-09-05T11:07:53.306Z,101142.34
2022-09-05T11:10:31.909Z,101140.63
2022-09-05T11:13:04.450Z,101137.69
2022-09-05T11:15:43.982Z,101139.09
2022-09-05T11:18:55.040Z,101130.59
2022-09-05T11:22:22.387Z,101137.72
2022-09-05T11:24:50.685Z,101128.88
2022-09-05T11:27:35.320Z,101137.22
2022-09-05T11:30:06.647Z,101133.13
2022-09-05T11:38:52.364Z,101127.78
2022-09-05T11:39:17.204Z,101127.97
2022-09-05T11:39:54.439Z,101121.00
2022-09-05T11:42:06.957Z,101113.72
2022-09-05T11:44:47.089Z,101119.78
2022-09-05T11:47:51.197Z,101120.88
2022-09-05T11:50:48.784Z,101111.91
2022-09-05T11:53:49.212Z,101109.28
2022-09-05T11:56:39.656Z,101112.03
2022-09-05T11:59:39.999Z,101117.69
2022-09-05T12:02:50.768Z,101107.75
2022-09-05T12:05:50.491Z,101110.69
2022-09-05T12:08:29.390Z,101105.63
2022-09-05T12:11:11.058Z,101108.50
2022-09-05T12:13:46.279Z,101103.03
2022-09-05T12:16:26.959Z,101097.34
2022-09-05T12:19:23.014Z,101100.69
2022-09-05T12:22:23.939Z,101088.78
2022-09-05T12:25:24.477Z,101091.88
2022-09-05T12:27:47.793Z,101088.22
2022-09-05T12:30:36.308Z,101087.13
2022-09-05T12:36:02.153Z,101090.75
2022-09-05T12:40:21.350Z,101079.88
2022-09-05T12:41:37.770Z,101074.31
2022-09-05T12:42:27.936Z,101079.94
2022-09-05T12:45:14.104Z,101077.50
2022-09-05T12:47:58.359Z,101072.50
2022-09-05T12:50:34.577Z,101083.81
2022-09-05T12:53:08.095Z,101082.94
2022-09-05T12:56:52.905Z,101080.44
2022-09-05T13:03:06.072Z,101058.28
2022-09-05T13:03:11.190Z,101067.78
2022-09-05T13:04:34.331Z,101057.03
2022-09-05T13:07:08.279Z,101063.72
2022-09-05T13:10:47.524Z,101060.78
2022-09-05T13:14:47.654Z,101055.19
2022-09-05T13:15:36.244Z,101058.03
2022-09-05T13:18:10.536Z,101053.97
2022-09-05T13:20:39.837Z,101055.56
2022-09-05T13:23:12.114Z,101052.53
2022-09-05T13:25:42.419Z,101055.91
2022-09-05T13:28:11.600Z,101046.94
2022-09-05T13:37:58.901Z,101051.47
2022-09-05T13:38:12.953Z,101037.72
2022-09-05T13:38:17.740Z,101039.13
2022-09-05T13:39:28.373Z,101038.75
2022-09-05T13:41:59.650Z,101035.19
2022-09-05T13:44:28.239Z,101025.16
2022-09-05T13:47:28.379Z,101024.56
2022-09-05T13:50:13.322Z,101029.34
2022-09-05T13:52:46.372Z,101024.16
2022-09-05T13:55:29.803Z,101025.81
2022-09-05T13:58:15.113Z,101036.22
2022-09-05T14:00:57.756Z,101024.56
2022-09-05T14:04:00.175Z,101028.78
2022-09-05T14:10:08.159Z,101018.75
2022-09-05T14:13:12.901Z,101027.06
2022-09-05T14:16:02.625Z,101026.28
2022-09-05T14:18:57.993Z,101021.66
2022-09-05T14:21:28.545Z,101020.19
2022-09-05T14:24:05.814Z,101016.00
2022-09-05T14:26:44.353Z,101012.06
2022-09-05T14:29:14.331Z,101008.28
2022-09-05T14:37:39.269Z,101005.34
2022-09-05T14:37:50.095Z,101007.84
2022-09-05T14:38:21.396Z,101009.31
2022-09-05T14:41:16.238Z,101012.00
2022-09-05T14:44:17.148Z,101002.41
2022-09-05T14:47:06.846Z,101002.44
2022-09-05T14:49:50.061Z,101001.63
2022-09-05T14:52:29.016Z,101000.78
2022-09-05T15:02:49.130Z,101000.16
2022-09-05T15:02:58.505Z,100994.75
2022-09-05T15:06:32.893Z,100997.88
2022-09-05T15:11:25.592Z,101005.38
2022-09-05T15:12:21.983Z,100994.75
2022-09-05T15:14:36.347Z,100996.59
2022-09-05T15:17:05.246Z,100988.25
2022-09-05T15:20:06.368Z,100988.28
2022-09-05T15:22:37.074Z,100998.72
2022-09-05T15:25:17.498Z,100986.66
2022-09-05T15:27:46.349Z,100981.66
2022-09-05T15:30:36.483Z,100978.22
2022-09-05T15:33:17.141Z,100982.66
2022-09-05T15:35:45.541Z,100979.91
2022-09-05T15:38:23.939Z,100981.56
2022-09-05T15:41:26.794Z,100981.34
2022-09-05T15:44:04.404Z,100984.28
2022-09-05T15:46:57.918Z,100979.44
2022-09-05T15:49:31.562Z,100973.00
2022-09-05T15:52:16.355Z,100976.19
2022-09-05T15:55:00.180Z,100969.41
2022-09-05T15:57:38.651Z,100977.09
2022-09-05T16:00:11.046Z,100972.28
2022-09-05T16:02:44.931Z,100975.13
2022-09-05T16:10:27.143Z,100971.53
2022-09-05T16:10:42.374Z,100961.59
2022-09-05T16:14:16.178Z,100961.44
2022-09-05T16:23:18.487Z,100959.28
2022-09-05T16:23:24.111Z,100957.19
2022-09-05T16:23:34.514Z,100955.41
2022-09-05T16:25:50.454Z,100942.50
2022-09-05T16:28:22.967Z,100948.94
2022-09-05T16:30:49.682Z,100947.00
2022-09-05T16:33:25.510Z,100947.91
2022-09-05T16:36:07.052Z,100950.69
2022-09-05T16:38:50.093Z,100947.66
2022-09-05T16:41:35.325Z,100945.91
2022-09-05T16:44:14.396Z,100939.69
2022-09-05T16:46:49.312Z,100943.78
2022-09-05T16:49:29.692Z,100938.88
2022-09-05T16:52:09.907Z,100943.66
2022-09-05T16:54:51.313Z,100943.75
2022-09-05T16:57:22.981Z,100939.88
2022-09-05T16:59:49.666Z,100939.09
2022-09-05T17:02:29.120Z,100932.50
2022-09-05T17:05:04.031Z,100933.09
2022-09-05T17:08:02.859Z,100929.84
2022-09-05T17:10:43.649Z,100936.03
2022-09-05T17:13:14.241Z,100931.41
2022-09-05T17:15:51.746Z,100933.19
2022-09-05T17:18:24.304Z,100933.59
2022-09-05T17:20:59.666Z,100927.25
2022-09-05T17:26:03.219Z,100927.84
2022-09-05T17:29:29.473Z,100931.63
2022-09-05T17:31:27.731Z,100934.91
2022-09-05T17:32:37.891Z,100929.22
2022-09-05T17:35:26.529Z,100929.91
2022-09-05T17:38:11.329Z,100933.13
2022-09-05T17:41:02.021Z,100927.59
2022-09-05T17:43:34.493Z,100933.03
2022-09-05T17:46:26.551Z,100931.38
2022-09-05T17:49:17.529Z,100935.56
2022-09-05T17:51:51.080Z,100942.16
2022-09-05T17:54:28.180Z,100944.66
2022-09-05T17:56:54.893Z,100943.50
2022-09-05T17:59:22.122Z,100946.50
2022-09-05T18:02:07.248Z,100935.44
2022-09-05T18:04:52.478Z,100951.69
2022-09-05T18:07:31.046Z,100951.50
2022-09-05T18:10:15.377Z,100949.97
2022-09-05T18:13:12.956Z,100953.44
2022-09-05T18:15:37.730Z,100959.63
2022-09-05T18:18:10.802Z,100952.06
2022-09-05T18:20:59.756Z,100960.06
2022-09-05T18:23:54.823Z,100965.06
2022-09-05T18:26:23.551Z,100960.97
2022-09-05T18:28:59.239Z,100957.25
2022-09-05T18:31:42.011Z,100961.75
2022-09-05T18:34:21.260Z,100955.53
2022-09-05T18:36:49.929Z,100960.72
2022-09-05T18:39:37.938Z,100962.38
2022-09-05T18:42:33.479Z,100966.38
2022-09-05T18:45:28.153Z,100959.63
2022-09-05T18:47:59.346Z,100956.78
2022-09-05T18:50:32.333Z,100958.69
2022-09-05T18:53:10.571Z,100953.97
2022-09-05T18:56:10.357Z,100952.00
2022-09-05T18:58:51.631Z,100949.09
2022-09-05T19:01:45.378Z,100947.34
2022-09-05T19:04:38.963Z,100949.28
2022-09-05T19:07:12.308Z,100943.91
2022-09-05T19:09:57.113Z,100948.69
2022-09-05T19:12:33.519Z,100941.81
2022-09-05T19:15:26.006Z,100943.41
2022-09-05T19:18:36.971Z,100938.91
2022-09-05T19:21:17.791Z,100939.22
2022-09-05T19:23:53.085Z,100935.16
2022-09-05T19:26:20.361Z,100934.19
2022-09-05T19:36:59.857Z,100939.22
2022-09-05T19:37:02.954Z,100932.06
2022-09-05T19:37:12.345Z,100937.63
2022-09-05T19:37:28.975Z,100934.97
2022-09-05T19:42:31.925Z,100933.66
2022-09-05T19:47:36.818Z,100932.34
2022-09-05T19:47:49.885Z,100936.78
2022-09-05T19:48:27.090Z,100935.88
2022-09-05T19:50:55.800Z,100937.41
2022-09-05T19:53:22.762Z,100947.19
2022-09-05T19:55:49.358Z,100937.41
2022-09-05T19:58:20.825Z,100945.81
2022-09-05T20:01:00.745Z,100944.44
2022-09-05T20:03:28.875Z,100946.31
2022-09-05T20:06:26.698Z,100947.28
2022-09-05T20:09:14.594Z,100944.19
2022-09-05T20:11:46.749Z,100949.31
2022-09-05T20:14:24.985Z,100940.06
2022-09-05T20:16:55.253Z,100949.59
2022-09-05T20:19:28.600Z,100948.03
2022-09-05T20:22:49.336Z,100945.34
2022-09-05T20:25:19.908Z,100949.13
2022-09-05T20:27:59.727Z,100957.63
2022-09-05T20:30:34.910Z,100950.47
2022-09-05T20:33:08.698Z,100948.25
2022-09-05T20:40:05.454Z,100950.94
2022-09-05T20:43:24.766Z,100958.41
2022-09-05T20:43:29.617Z,100948.84
2022-09-05T20:44:22.584Z,100951.16
2022-09-05T20:54:05.522Z,100957.81
2022-09-05T20:54:20.746Z,100958.50
2022-09-05T20:54:26.768Z,100953.69
2022-09-05T20:55:41.777Z,100956.94
2022-09-05T20:58:19.568Z,100946.97
2022-09-05T21:01:20.057Z,100957.16
2022-09-05T21:03:40.940Z,100952.81
2022-09-05T21:06:24.138Z,100955.63
2022-09-05T21:08:52.318Z,100956.53
2022-09-05T21:11:29.223Z,100956.47
2022-09-05T21:13:58.352Z,100959.41
2022-09-05T21:16:29.339Z,100959.41
2022-09-05T21:18:55.856Z,100957.72
2022-09-05T21:21:28.735Z,100954.53
2022-09-05T21:24:17.978Z,100960.25
2022-09-05T21:26:47.126Z,100969.84
2022-09-05T21:29:16.378Z,100969.47
2022-09-05T21:31:49.079Z,100968.38
2022-09-05T21:34:25.093Z,100971.19
2022-09-05T21:36:56.267Z,100967.25
2022-09-05T21:39:55.330Z,100970.53
2022-09-05T21:45:33.801Z,100973.50
2022-09-05T21:47:41.218Z,100963.28
2022-09-05T21:48:02.961Z,100976.63
2022-09-05T21:50:34.517Z,100976.53
2022-09-05T21:54:58.554Z,100973.47
2022-09-05T21:59:20.378Z,100962.53
2022-09-05T21:59:33.069Z,100973.31
2022-09-05T22:01:50.904Z,100966.75
2022-09-05T22:04:15.293Z,100966.91
2022-09-05T22:06:48.775Z,100970.41
2022-09-05T22:09:17.384Z,100973.09
2022-09-05T22:11:50.601Z,100972.81
2022-09-05T22:14:21.697Z,100959.19
2022-09-05T22:16:50.442Z,100959.75
2022-09-05T22:19:37.067Z,100964.81
2022-09-05T22:22:16.303Z,100967.22
2022-09-05T22:24:48.378Z,100961.72
2022-09-05T22:27:15.604Z,100964.97
2022-09-05T22:29:43.052Z,100958.94
2022-09-05T22:32:14.107Z,100961.72
2022-09-05T22:34:40.673Z,100958.66
2022-09-05T22:37:07.582Z,100964.28
2022-09-05T22:39:36.870Z,100963.16
2022-09-05T22:42:09.994Z,100971.88
2022-09-05T22:44:39.128Z,100962.56
2022-09-05T22:47:09.285Z,100965.00
2022-09-05T22:49:36.549Z,100960.63
2022-09-05T22:52:07.523Z,100955.28
2022-09-05T22:54:34.953Z,100957.41
2022-09-05T22:57:01.959Z,100962.16
2022-09-05T22:59:28.658Z,100966.53
2022-09-05T23:01:55.233Z,100958.78
2022-09-05T23:04:21.733Z,100961.03
2022-09-05T23:06:48.473Z,100964.81
2022-09-05T23:09:14.963Z,100963.69
2022-09-05T23:11:41.646Z,100963.28
2022-09-05T23:14:08.413Z,100960.50
2022-09-05T23:16:34.995Z,100969.31
2022-09-05T23:19:01.598Z,100955.84
2022-09-05T23:21:28.316Z,100961.44
2022-09-05T23:23:54.840Z,100966.63
2022-09-05T23:26:22.340Z,100955.84
2022-09-05T23:28:49.628Z,100951.88
2022-09-05T23:31:16.335Z,100952.06
2022-09-05T23:33:43.108Z,100953.47
2022-09-05T23:36:12.696Z,100955.16
2022-09-05T23:38:41.420Z,100956.13
2022-09-05T23:41:10.437Z,100949.81
2022-09-05T23:43:37.034Z,100956.16
2022-09-05T23:46:04.063Z,100948.56
2022-09-05T23:48:31.062Z,100950.53
2022-09-05T23:51:05.465Z,100953.34
2022-09-05T23:53:32.133Z,100955.13
2022-09-05T23:56:06.607Z,100950.38
2022-09-05T23:58:34.390Z,100947.97
